sensor_id;sensor_type;location;lat;lon;timestamp;temperature;humidity
21331;DHT22;10824;51.632;4.950;2023-07-13T00:00:30;17.10;99.90
21331;DHT22;10824;51.632;4.950;2023-07-13T00:02:59;17.10;99.90
21331;DHT22;10824;51.632;4.950;2023-07-13T00:05:26;17.10;99.90
21331;DHT22;10824;51.632;4.950;2023-07-13T00:07:54;17.00;99.90
21331;DHT22;10824;51.632;4.950;2023-07-13T00:10:22;17.00;99.90
21331;DHT22;10824;51.632;4.950;2023-07-13T00:12:49;17.00;99.90
21331;DHT22;10824;51.632;4.950;2023-07-13T00:15:24;16.90;99.90
21331;DHT22;10824;51.632;4.950;2023-07-13T00:17:53;16.90;1.00
21331;DHT22;10824;51.632;4.950;2023-07-13T00:20:23;16.80;1.00
21331;DHT22;10824;51.632;4.950;2023-07-13T00:22:52;16.80;1.00
21331;DHT22;10824;51.632;4.950;2023-07-13T00:25:21;16.80;1.00
21331;DHT22;10824;51.632;4.950;2023-07-13T00:27:51;16.80;1.00
21331;DHT22;10824;51.632;4.950;2023-07-13T00:30:18;16.80;1.00
21331;DHT22;10824;51.632;4.950;2023-07-13T00:32:45;16.70;1.00
21331;DHT22;10824;51.632;4.950;2023-07-13T00:35:14;16.70;19.60
21331;DHT22;10824;51.632;4.950;2023-07-13T00:37:42;16.70;69.30
21331;DHT22;10824;51.632;4.950;2023-07-13T00:40:14;16.70;99.90
21331;DHT22;10824;51.632;4.950;2023-07-13T00:42:43;16.70;99.90
21331;DHT22;10824;51.632;4.950;2023-07-13T00:47:41;16.70;99.90
21331;DHT22;10824;51.632;4.950;2023-07-13T00:50:11;16.70;99.90
21331;DHT22;10824;51.632;4.950;2023-07-13T00:52:41;16.70;99.90
21331;DHT22;10824;51.632;4.950;2023-07-13T00:55:11;16.70;99.90
21331;DHT22;10824;51.632;4.950;2023-07-13T00:57:40;16.60;99.90
21331;DHT22;10824;51.632;4.950;2023-07-13T01:00:08;16.60;1.00
21331;DHT22;10824;51.632;4.950;2023-07-13T01:02:42;16.60;1.00
21331;DHT22;10824;51.632;4.950;2023-07-13T01:05:12;16.60;1.00
21331;DHT22;10824;51.632;4.950;2023-07-13T01:07:42;16.50;1.00
21331;DHT22;10824;51.632;4.950;2023-07-13T01:10:12;16.50;1.00
21331;DHT22;10824;51.632;4.950;2023-07-13T01:12:40;16.50;1.00
21331;DHT22;10824;51.632;4.950;2023-07-13T01:15:42;16.40;1.00
21331;DHT22;10824;51.632;4.950;2023-07-13T01:18:20;16.40;77.90
21331;DHT22;10824;51.632;4.950;2023-07-13T01:21:08;16.50;44.40
21331;DHT22;10824;51.632;4.950;2023-07-13T01:23:35;16.30;99.90
21331;DHT22;10824;51.632;4.950;2023-07-13T01:26:02;16.30;99.90
21331;DHT22;10824;51.632;4.950;2023-07-13T01:28:30;16.20;99.90
21331;DHT22;10824;51.632;4.950;2023-07-13T01:30:58;16.30;99.90
21331;DHT22;10824;51.632;4.950;2023-07-13T01:33:27;16.20;99.90
21331;DHT22;10824;51.632;4.950;2023-07-13T01:35:55;16.20;99.90
21331;DHT22;10824;51.632;4.950;2023-07-13T01:38:24;16.20;1.00
21331;DHT22;10824;51.632;4.950;2023-07-13T01:40:52;16.20;1.00
21331;DHT22;10824;51.632;4.950;2023-07-13T01:43:20;16.10;1.00
21331;DHT22;10824;51.632;4.950;2023-07-13T01:45:48;16.10;1.00
21331;DHT22;10824;51.632;4.950;2023-07-13T01:48:15;16.10;1.00
21331;DHT22;10824;51.632;4.950;2023-07-13T01:50:42;16.10;3.80
21331;DHT22;10824;51.632;4.950;2023-07-13T01:53:10;16.00;99.90
21331;DHT22;10824;51.632;4.950;2023-07-13T01:55:38;16.00;99.90
21331;DHT22;10824;51.632;4.950;2023-07-13T01:58:06;16.00;99.90
21331;DHT22;10824;51.632;4.950;2023-07-13T02:00:33;15.90;99.90
21331;DHT22;10824;51.632;4.950;2023-07-13T02:03:01;15.90;1.00
21331;DHT22;10824;51.632;4.950;2023-07-13T02:05:31;15.90;1.00
21331;DHT22;10824;51.632;4.950;2023-07-13T02:07:58;15.80;1.00
21331;DHT22;10824;51.632;4.950;2023-07-13T02:10:25;15.90;3.40
21331;DHT22;10824;51.632;4.950;2023-07-13T02:12:52;16.00;1.00
21331;DHT22;10824;51.632;4.950;2023-07-13T02:15:19;15.90;1.00
21331;DHT22;10824;51.632;4.950;2023-07-13T02:17:47;15.80;95.60
21331;DHT22;10824;51.632;4.950;2023-07-13T02:20:14;15.80;99.90
21331;DHT22;10824;51.632;4.950;2023-07-13T02:22:42;15.80;1.00
21331;DHT22;10824;51.632;4.950;2023-07-13T02:25:09;15.80;1.00
21331;DHT22;10824;51.632;4.950;2023-07-13T02:27:36;15.80;99.90
21331;DHT22;10824;51.632;4.950;2023-07-13T02:30:03;15.70;1.00
21331;DHT22;10824;51.632;4.950;2023-07-13T02:32:30;15.80;1.00
21331;DHT22;10824;51.632;4.950;2023-07-13T02:34:58;15.80;1.00
21331;DHT22;10824;51.632;4.950;2023-07-13T02:37:25;15.80;99.90
21331;DHT22;10824;51.632;4.950;2023-07-13T02:39:52;15.70;99.90
21331;DHT22;10824;51.632;4.950;2023-07-13T02:42:19;15.80;99.90
21331;DHT22;10824;51.632;4.950;2023-07-13T02:44:46;15.70;99.90
21331;DHT22;10824;51.632;4.950;2023-07-13T02:47:13;15.70;99.90
21331;DHT22;10824;51.632;4.950;2023-07-13T02:49:40;15.70;1.00
21331;DHT22;10824;51.632;4.950;2023-07-13T02:52:09;15.70;4.00
21331;DHT22;10824;51.632;4.950;2023-07-13T02:54:36;15.70;26.10
21331;DHT22;10824;51.632;4.950;2023-07-13T02:57:03;15.70;99.90
21331;DHT22;10824;51.632;4.950;2023-07-13T02:59:31;15.70;99.90
21331;DHT22;10824;51.632;4.950;2023-07-13T03:01:58;15.70;99.90
21331;DHT22;10824;51.632;4.950;2023-07-13T03:04:26;15.60;99.90
21331;DHT22;10824;51.632;4.950;2023-07-13T03:06:53;15.70;1.00
21331;DHT22;10824;51.632;4.950;2023-07-13T03:09:32;15.60;64.70
21331;DHT22;10824;51.632;4.950;2023-07-13T03:12:02;15.60;99.90
21331;DHT22;10824;51.632;4.950;2023-07-13T03:14:31;15.50;1.00
21331;DHT22;10824;51.632;4.950;2023-07-13T03:17:00;15.50;99.90
21331;DHT22;10824;51.632;4.950;2023-07-13T03:19:30;15.50;99.90
21331;DHT22;10824;51.632;4.950;2023-07-13T03:21:58;15.40;99.90
21331;DHT22;10824;51.632;4.950;2023-07-13T03:24:25;15.50;99.90
21331;DHT22;10824;51.632;4.950;2023-07-13T03:26:53;15.40;1.00
21331;DHT22;10824;51.632;4.950;2023-07-13T03:29:21;15.40;1.00
21331;DHT22;10824;51.632;4.950;2023-07-13T03:31:50;15.40;1.00
21331;DHT22;10824;51.632;4.950;2023-07-13T03:34:21;15.40;1.00
21331;DHT22;10824;51.632;4.950;2023-07-13T03:36:48;15.40;7.30
21331;DHT22;10824;51.632;4.950;2023-07-13T03:39:15;15.40;34.40
21331;DHT22;10824;51.632;4.950;2023-07-13T03:41:47;15.40;99.90
21331;DHT22;10824;51.632;4.950;2023-07-13T03:44:19;15.40;99.90
21331;DHT22;10824;51.632;4.950;2023-07-13T03:46:50;15.40;99.90
21331;DHT22;10824;51.632;4.950;2023-07-13T03:49:18;15.40;99.90
21331;DHT22;10824;51.632;4.950;2023-07-13T03:51:45;15.40;17.40
21331;DHT22;10824;51.632;4.950;2023-07-13T03:54:12;15.40;99.90
21331;DHT22;10824;51.632;4.950;2023-07-13T03:56:39;15.40;99.90
21331;DHT22;10824;51.632;4.950;2023-07-13T03:59:08;15.40;99.90
21331;DHT22;10824;51.632;4.950;2023-07-13T04:01:35;15.40;99.90
21331;DHT22;10824;51.632;4.950;2023-07-13T04:04:04;15.40;99.90
21331;DHT22;10824;51.632;4.950;2023-07-13T04:06:31;15.40;99.90
21331;DHT22;10824;51.632;4.950;2023-07-13T04:09:02;15.40;99.90
21331;DHT22;10824;51.632;4.950;2023-07-13T04:11:30;15.40;99.90
21331;DHT22;10824;51.632;4.950;2023-07-13T04:13:59;15.40;99.90
21331;DHT22;10824;51.632;4.950;2023-07-13T04:16:26;15.50;99.90
21331;DHT22;10824;51.632;4.950;2023-07-13T04:18:54;15.50;99.90
21331;DHT22;10824;51.632;4.950;2023-07-13T04:21:24;15.50;99.90
21331;DHT22;10824;51.632;4.950;2023-07-13T04:23:51;15.50;99.90
21331;DHT22;10824;51.632;4.950;2023-07-13T04:26:18;15.60;99.90
21331;DHT22;10824;51.632;4.950;2023-07-13T04:28:48;15.70;99.90
21331;DHT22;10824;51.632;4.950;2023-07-13T04:31:15;15.60;99.90
21331;DHT22;10824;51.632;4.950;2023-07-13T04:33:42;15.70;99.90
21331;DHT22;10824;51.632;4.950;2023-07-13T04:36:12;15.70;99.90
21331;DHT22;10824;51.632;4.950;2023-07-13T04:38:41;15.70;99.90
21331;DHT22;10824;51.632;4.950;2023-07-13T04:41:08;15.70;99.90
21331;DHT22;10824;51.632;4.950;2023-07-13T04:43:37;15.80;99.90
21331;DHT22;10824;51.632;4.950;2023-07-13T04:46:07;15.90;99.90
21331;DHT22;10824;51.632;4.950;2023-07-13T04:48:35;16.00;78.40
21331;DHT22;10824;51.632;4.950;2023-07-13T04:51:03;16.00;33.00
21331;DHT22;10824;51.632;4.950;2023-07-13T04:53:31;16.00;88.10
21331;DHT22;10824;51.632;4.950;2023-07-13T04:55:59;15.90;99.90
21331;DHT22;10824;51.632;4.950;2023-07-13T04:58:27;15.90;99.90
21331;DHT22;10824;51.632;4.950;2023-07-13T05:01:04;16.00;99.90
21331;DHT22;10824;51.632;4.950;2023-07-13T05:03:32;16.10;81.80
21331;DHT22;10824;51.632;4.950;2023-07-13T05:06:06;16.10;64.40
21331;DHT22;10824;51.632;4.950;2023-07-13T05:08:34;16.20;1.00
21331;DHT22;10824;51.632;4.950;2023-07-13T05:11:02;16.30;1.00
21331;DHT22;10824;51.632;4.950;2023-07-13T05:13:30;16.30;15.00
21331;DHT22;10824;51.632;4.950;2023-07-13T05:16:02;16.40;87.20
21331;DHT22;10824;51.632;4.950;2023-07-13T05:18:31;16.30;99.90
21331;DHT22;10824;51.632;4.950;2023-07-13T05:23:27;16.40;53.40
21331;DHT22;10824;51.632;4.950;2023-07-13T05:25:54;16.50;99.90
21331;DHT22;10824;51.632;4.950;2023-07-13T05:28:21;16.50;1.00
21331;DHT22;10824;51.632;4.950;2023-07-13T05:30:50;16.50;3.30
21331;DHT22;10824;51.632;4.950;2023-07-13T05:33:17;16.50;93.40
21331;DHT22;10824;51.632;4.950;2023-07-13T05:35:44;16.60;99.90
21331;DHT22;10824;51.632;4.950;2023-07-13T05:38:12;16.70;1.00
21331;DHT22;10824;51.632;4.950;2023-07-13T05:40:39;16.70;1.00
21331;DHT22;10824;51.632;4.950;2023-07-13T05:43:06;16.80;1.00
21331;DHT22;10824;51.632;4.950;2023-07-13T05:45:34;16.90;1.00
21331;DHT22;10824;51.632;4.950;2023-07-13T05:48:01;16.90;1.00
21331;DHT22;10824;51.632;4.950;2023-07-13T05:50:28;17.00;99.90
21331;DHT22;10824;51.632;4.950;2023-07-13T05:52:55;17.00;99.90
21331;DHT22;10824;51.632;4.950;2023-07-13T05:55:23;17.10;99.90
21331;DHT22;10824;51.632;4.950;2023-07-13T05:57:50;17.10;99.90
21331;DHT22;10824;51.632;4.950;2023-07-13T06:00:18;17.10;99.90
21331;DHT22;10824;51.632;4.950;2023-07-13T06:02:45;17.00;99.90
21331;DHT22;10824;51.632;4.950;2023-07-13T06:05:12;17.00;99.90
21331;DHT22;10824;51.632;4.950;2023-07-13T06:07:40;17.10;1.00
21331;DHT22;10824;51.632;4.950;2023-07-13T06:10:08;17.10;1.00
21331;DHT22;10824;51.632;4.950;2023-07-13T06:12:35;17.10;99.90
21331;DHT22;10824;51.632;4.950;2023-07-13T06:15:03;17.30;1.00
21331;DHT22;10824;51.632;4.950;2023-07-13T06:17:31;17.40;99.90
21331;DHT22;10824;51.632;4.950;2023-07-13T06:19:58;17.40;99.90
21331;DHT22;10824;51.632;4.950;2023-07-13T06:22:25;17.50;99.90
21331;DHT22;10824;51.632;4.950;2023-07-13T06:24:52;17.50;99.90
21331;DHT22;10824;51.632;4.950;2023-07-13T06:27:19;17.40;99.90
21331;DHT22;10824;51.632;4.950;2023-07-13T06:29:46;17.40;99.90
21331;DHT22;10824;51.632;4.950;2023-07-13T06:32:13;17.30;99.90
21331;DHT22;10824;51.632;4.950;2023-07-13T06:34:41;17.30;99.90
21331;DHT22;10824;51.632;4.950;2023-07-13T06:37:11;17.50;99.90
21331;DHT22;10824;51.632;4.950;2023-07-13T06:39:38;17.60;99.90
21331;DHT22;10824;51.632;4.950;2023-07-13T06:42:06;17.70;47.50
21331;DHT22;10824;51.632;4.950;2023-07-13T06:44:33;17.70;17.40
21331;DHT22;10824;51.632;4.950;2023-07-13T06:47:01;17.60;37.90
21331;DHT22;10824;51.632;4.950;2023-07-13T06:49:28;17.60;86.60
21331;DHT22;10824;51.632;4.950;2023-07-13T06:51:55;17.90;99.90
21331;DHT22;10824;51.632;4.950;2023-07-13T06:54:22;17.90;1.00
21331;DHT22;10824;51.632;4.950;2023-07-13T06:56:49;18.00;1.00
21331;DHT22;10824;51.632;4.950;2023-07-13T06:59:16;17.90;1.00
21331;DHT22;10824;51.632;4.950;2023-07-13T07:01:44;18.00;1.00
21331;DHT22;10824;51.632;4.950;2023-07-13T07:04:12;18.10;1.00
21331;DHT22;10824;51.632;4.950;2023-07-13T07:06:39;18.00;99.90
21331;DHT22;10824;51.632;4.950;2023-07-13T07:09:06;18.30;99.90
21331;DHT22;10824;51.632;4.950;2023-07-13T07:11:33;18.40;90.40
21331;DHT22;10824;51.632;4.950;2023-07-13T07:14:00;18.50;1.00
21331;DHT22;10824;51.632;4.950;2023-07-13T07:16:27;18.40;1.00
21331;DHT22;10824;51.632;4.950;2023-07-13T07:18:55;18.40;1.00
21331;DHT22;10824;51.632;4.950;2023-07-13T07:21:22;18.60;1.00
21331;DHT22;10824;51.632;4.950;2023-07-13T07:23:51;18.80;1.00
21331;DHT22;10824;51.632;4.950;2023-07-13T07:26:18;18.80;99.90
21331;DHT22;10824;51.632;4.950;2023-07-13T07:28:50;18.90;99.90
21331;DHT22;10824;51.632;4.950;2023-07-13T07:31:37;18.90;99.90
21331;DHT22;10824;51.632;4.950;2023-07-13T07:34:07;18.80;1.00
21331;DHT22;10824;51.632;4.950;2023-07-13T07:36:34;18.80;1.00
21331;DHT22;10824;51.632;4.950;2023-07-13T07:39:04;19.00;99.90
21331;DHT22;10824;51.632;4.950;2023-07-13T07:41:31;19.10;1.00
21331;DHT22;10824;51.632;4.950;2023-07-13T07:44:02;19.20;99.90
21331;DHT22;10824;51.632;4.950;2023-07-13T07:46:30;19.10;1.00
21331;DHT22;10824;51.632;4.950;2023-07-13T07:48:57;19.30;1.00
21331;DHT22;10824;51.632;4.950;2023-07-13T07:51:26;19.40;99.90
21331;DHT22;10824;51.632;4.950;2023-07-13T07:53:53;19.60;30.90
21331;DHT22;10824;51.632;4.950;2023-07-13T07:56:20;19.30;1.00
21331;DHT22;10824;51.632;4.950;2023-07-13T07:58:50;19.00;1.00
21331;DHT22;10824;51.632;4.950;2023-07-13T08:01:20;19.20;19.10
21331;DHT22;10824;51.632;4.950;2023-07-13T08:03:50;19.40;99.90
21331;DHT22;10824;51.632;4.950;2023-07-13T08:06:20;19.70;1.00
21331;DHT22;10824;51.632;4.950;2023-07-13T08:08:51;20.00;1.00
21331;DHT22;10824;51.632;4.950;2023-07-13T08:11:20;19.90;99.90
21331;DHT22;10824;51.632;4.950;2023-07-13T08:13:50;19.80;1.00
21331;DHT22;10824;51.632;4.950;2023-07-13T08:16:21;19.80;1.00
21331;DHT22;10824;51.632;4.950;2023-07-13T08:18:49;19.90;1.00
21331;DHT22;10824;51.632;4.950;2023-07-13T08:21:16;20.00;1.00
21331;DHT22;10824;51.632;4.950;2023-07-13T08:23:44;19.90;1.00
21331;DHT22;10824;51.632;4.950;2023-07-13T08:26:11;20.30;99.90
21331;DHT22;10824;51.632;4.950;2023-07-13T08:28:38;20.40;99.90
21331;DHT22;10824;51.632;4.950;2023-07-13T08:31:06;20.40;99.90
21331;DHT22;10824;51.632;4.950;2023-07-13T08:33:35;20.60;99.90
21331;DHT22;10824;51.632;4.950;2023-07-13T08:36:03;20.60;73.30
21331;DHT22;10824;51.632;4.950;2023-07-13T08:38:30;20.70;30.30
21331;DHT22;10824;51.632;4.950;2023-07-13T08:40:57;20.80;1.00
21331;DHT22;10824;51.632;4.950;2023-07-13T08:43:31;20.70;1.00
21331;DHT22;10824;51.632;4.950;2023-07-13T08:48:37;20.40;1.00
21331;DHT22;10824;51.632;4.950;2023-07-13T08:51:11;20.60;1.00
21331;DHT22;10824;51.632;4.950;2023-07-13T08:53:45;20.80;1.00
21331;DHT22;10824;51.632;4.950;2023-07-13T08:56:24;20.70;1.00
21331;DHT22;10824;51.632;4.950;2023-07-13T08:58:56;20.60;1.00
21331;DHT22;10824;51.632;4.950;2023-07-13T09:02:00;20.70;1.00
21331;DHT22;10824;51.632;4.950;2023-07-13T09:05:00;21.20;1.00
21331;DHT22;10824;51.632;4.950;2023-07-13T09:10:16;21.00;1.00
21331;DHT22;10824;51.632;4.950;2023-07-13T09:15:44;21.40;99.90
21331;DHT22;10824;51.632;4.950;2023-07-13T09:18:28;21.90;99.90
21331;DHT22;10824;51.632;4.950;2023-07-13T09:21:13;22.20;99.90
21331;DHT22;10824;51.632;4.950;2023-07-13T09:23:42;22.00;99.90
21331;DHT22;10824;51.632;4.950;2023-07-13T09:28:45;21.50;99.90
21331;DHT22;10824;51.632;4.950;2023-07-13T09:31:17;21.60;99.90
21331;DHT22;10824;51.632;4.950;2023-07-13T09:33:46;22.00;99.90
21331;DHT22;10824;51.632;4.950;2023-07-13T09:36:24;21.70;99.90
21331;DHT22;10824;51.632;4.950;2023-07-13T09:42:01;21.80;99.90
21331;DHT22;10824;51.632;4.950;2023-07-13T09:44:36;22.00;95.60
21331;DHT22;10824;51.632;4.950;2023-07-13T09:47:18;22.40;46.80
21331;DHT22;10824;51.632;4.950;2023-07-13T09:49:46;22.60;50.20
21331;DHT22;10824;51.632;4.950;2023-07-13T09:52:15;22.90;36.90
21331;DHT22;10824;51.632;4.950;2023-07-13T09:54:49;22.90;10.50
21331;DHT22;10824;51.632;4.950;2023-07-13T09:57:19;22.70;4.80
21331;DHT22;10824;51.632;4.950;2023-07-13T10:00:00;22.50;1.00
21331;DHT22;10824;51.632;4.950;2023-07-13T10:02:34;22.60;16.90
21331;DHT22;10824;51.632;4.950;2023-07-13T10:05:10;22.90;1.00
21331;DHT22;10824;51.632;4.950;2023-07-13T10:07:41;22.90;1.00
21331;DHT22;10824;51.632;4.950;2023-07-13T10:10:17;23.10;1.00
21331;DHT22;10824;51.632;4.950;2023-07-13T10:12:44;22.80;1.00
21331;DHT22;10824;51.632;4.950;2023-07-13T10:15:18;22.30;1.00
21331;DHT22;10824;51.632;4.950;2023-07-13T10:17:53;22.10;5.20
21331;DHT22;10824;51.632;4.950;2023-07-13T10:20:22;22.00;6.70
21331;DHT22;10824;51.632;4.950;2023-07-13T10:23:00;22.50;3.20
21331;DHT22;10824;51.632;4.950;2023-07-13T10:25:32;22.40;1.00
21331;DHT22;10824;51.632;4.950;2023-07-13T10:28:25;22.00;1.00
21331;DHT22;10824;51.632;4.950;2023-07-13T10:30:55;22.00;1.00
21331;DHT22;10824;51.632;4.950;2023-07-13T10:33:24;21.80;1.00
21331;DHT22;10824;51.632;4.950;2023-07-13T10:35:57;21.50;56.40
21331;DHT22;10824;51.632;4.950;2023-07-13T10:38:26;21.40;99.90
21331;DHT22;10824;51.632;4.950;2023-07-13T10:41:05;21.20;1.00
21331;DHT22;10824;51.632;4.950;2023-07-13T10:43:47;21.30;1.00
21331;DHT22;10824;51.632;4.950;2023-07-13T10:46:20;21.40;99.90
21331;DHT22;10824;51.632;4.950;2023-07-13T10:48:51;21.70;1.00
21331;DHT22;10824;51.632;4.950;2023-07-13T10:51:19;22.00;1.00
21331;DHT22;10824;51.632;4.950;2023-07-13T10:54:11;21.80;99.90
21331;DHT22;10824;51.632;4.950;2023-07-13T10:56:49;22.30;67.70
21331;DHT22;10824;51.632;4.950;2023-07-13T10:59:23;22.50;31.30
21331;DHT22;10824;51.632;4.950;2023-07-13T11:02:15;22.50;1.00
21331;DHT22;10824;51.632;4.950;2023-07-13T11:04:48;22.80;2.40
21331;DHT22;10824;51.632;4.950;2023-07-13T11:07:27;22.80;1.00
21331;DHT22;10824;51.632;4.950;2023-07-13T11:09:56;23.10;1.00
21331;DHT22;10824;51.632;4.950;2023-07-13T11:18:02;22.20;1.00
21331;DHT22;10824;51.632;4.950;2023-07-13T11:20:34;22.20;1.00
21331;DHT22;10824;51.632;4.950;2023-07-13T11:23:18;22.10;1.00
21331;DHT22;10824;51.632;4.950;2023-07-13T11:25:45;22.20;1.00
21331;DHT22;10824;51.632;4.950;2023-07-13T11:28:21;22.20;1.00
21331;DHT22;10824;51.632;4.950;2023-07-13T11:31:00;21.80;1.00
21331;DHT22;10824;51.632;4.950;2023-07-13T11:33:56;22.10;1.00
21331;DHT22;10824;51.632;4.950;2023-07-13T11:36:29;22.60;1.00
21331;DHT22;10824;51.632;4.950;2023-07-13T11:39:02;22.80;1.00
21331;DHT22;10824;51.632;4.950;2023-07-13T11:41:49;23.00;1.00
21331;DHT22;10824;51.632;4.950;2023-07-13T11:44:20;23.20;1.00
21331;DHT22;10824;51.632;4.950;2023-07-13T11:46:49;23.60;1.00
21331;DHT22;10824;51.632;4.950;2023-07-13T11:49:25;23.80;1.00
21331;DHT22;10824;51.632;4.950;2023-07-13T11:51:59;23.20;1.00
21331;DHT22;10824;51.632;4.950;2023-07-13T11:54:34;23.00;1.00
21331;DHT22;10824;51.632;4.950;2023-07-13T11:59:47;23.30;1.00
21331;DHT22;10824;51.632;4.950;2023-07-13T12:02:30;23.00;1.00
21331;DHT22;10824;51.632;4.950;2023-07-13T12:04:59;22.80;1.00
21331;DHT22;10824;51.632;4.950;2023-07-13T12:07:29;22.70;1.00
21331;DHT22;10824;51.632;4.950;2023-07-13T12:10:28;22.80;1.00
21331;DHT22;10824;51.632;4.950;2023-07-13T12:12:58;22.60;1.00
21331;DHT22;10824;51.632;4.950;2023-07-13T12:15:36;22.90;1.00
21331;DHT22;10824;51.632;4.950;2023-07-13T12:18:15;23.30;1.00
21331;DHT22;10824;51.632;4.950;2023-07-13T12:20:43;23.60;1.00
21331;DHT22;10824;51.632;4.950;2023-07-13T12:25:52;23.30;1.00
21331;DHT22;10824;51.632;4.950;2023-07-13T12:28:38;23.30;1.00
21331;DHT22;10824;51.632;4.950;2023-07-13T12:31:14;23.50;1.00
21331;DHT22;10824;51.632;4.950;2023-07-13T12:33:45;23.20;1.00
21331;DHT22;10824;51.632;4.950;2023-07-13T12:36:14;22.90;1.00
21331;DHT22;10824;51.632;4.950;2023-07-13T12:38:41;23.30;1.00
21331;DHT22;10824;51.632;4.950;2023-07-13T12:41:09;23.60;1.00
21331;DHT22;10824;51.632;4.950;2023-07-13T12:43:37;23.20;1.00
21331;DHT22;10824;51.632;4.950;2023-07-13T12:46:14;23.10;1.00
21331;DHT22;10824;51.632;4.950;2023-07-13T12:48:52;22.80;1.00
21331;DHT22;10824;51.632;4.950;2023-07-13T12:51:39;22.50;1.00
21331;DHT22;10824;51.632;4.950;2023-07-13T12:54:15;22.50;1.00
21331;DHT22;10824;51.632;4.950;2023-07-13T12:56:43;22.30;1.00
21331;DHT22;10824;51.632;4.950;2023-07-13T12:59:18;22.40;1.00
21331;DHT22;10824;51.632;4.950;2023-07-13T13:01:46;22.50;1.00
21331;DHT22;10824;51.632;4.950;2023-07-13T13:04:14;22.40;1.00
21331;DHT22;10824;51.632;4.950;2023-07-13T13:06:41;22.40;1.00
21331;DHT22;10824;51.632;4.950;2023-07-13T13:09:15;22.20;1.00
21331;DHT22;10824;51.632;4.950;2023-07-13T13:11:43;22.10;1.00
21331;DHT22;10824;51.632;4.950;2023-07-13T13:14:10;22.20;1.00
21331;DHT22;10824;51.632;4.950;2023-07-13T13:16:50;22.10;1.00
21331;DHT22;10824;51.632;4.950;2023-07-13T13:19:24;22.20;1.00
21331;DHT22;10824;51.632;4.950;2023-07-13T13:21:54;22.10;1.00
21331;DHT22;10824;51.632;4.950;2023-07-13T13:24:27;22.10;1.00
21331;DHT22;10824;51.632;4.950;2023-07-13T13:26:54;22.20;1.00
21331;DHT22;10824;51.632;4.950;2023-07-13T13:29:25;22.40;1.00
21331;DHT22;10824;51.632;4.950;2023-07-13T13:31:55;22.60;1.00
21331;DHT22;10824;51.632;4.950;2023-07-13T13:34:23;22.90;1.00
21331;DHT22;10824;51.632;4.950;2023-07-13T13:36:52;23.10;1.00
21331;DHT22;10824;51.632;4.950;2023-07-13T13:39:35;22.60;1.00
21331;DHT22;10824;51.632;4.950;2023-07-13T13:42:04;22.70;1.00
21331;DHT22;10824;51.632;4.950;2023-07-13T13:44:34;22.70;1.00
21331;DHT22;10824;51.632;4.950;2023-07-13T13:47:02;22.60;1.00
21331;DHT22;10824;51.632;4.950;2023-07-13T13:49:30;22.70;1.00
21331;DHT22;10824;51.632;4.950;2023-07-13T13:51:57;22.90;1.00
21331;DHT22;10824;51.632;4.950;2023-07-13T13:54:26;23.00;1.00
21331;DHT22;10824;51.632;4.950;2023-07-13T13:56:54;23.00;1.00
21331;DHT22;10824;51.632;4.950;2023-07-13T13:59:22;23.10;1.00
21331;DHT22;10824;51.632;4.950;2023-07-13T14:01:51;23.10;1.00
21331;DHT22;10824;51.632;4.950;2023-07-13T14:04:20;22.70;1.00
21331;DHT22;10824;51.632;4.950;2023-07-13T14:06:48;23.20;1.00
21331;DHT22;10824;51.632;4.950;2023-07-13T14:09:18;23.40;1.00
21331;DHT22;10824;51.632;4.950;2023-07-13T14:11:48;23.20;1.00
21331;DHT22;10824;51.632;4.950;2023-07-13T14:14:24;22.90;1.00
21331;DHT22;10824;51.632;4.950;2023-07-13T14:16:52;23.30;1.00
21331;DHT22;10824;51.632;4.950;2023-07-13T14:19:22;23.50;1.00
21331;DHT22;10824;51.632;4.950;2023-07-13T14:21:50;23.50;1.00
21331;DHT22;10824;51.632;4.950;2023-07-13T14:24:20;23.30;1.00
21331;DHT22;10824;51.632;4.950;2023-07-13T14:26:48;23.40;1.00
21331;DHT22;10824;51.632;4.950;2023-07-13T14:29:17;23.50;1.00
21331;DHT22;10824;51.632;4.950;2023-07-13T14:31:49;24.40;1.00
21331;DHT22;10824;51.632;4.950;2023-07-13T14:34:16;24.30;1.00
21331;DHT22;10824;51.632;4.950;2023-07-13T14:36:47;24.40;1.00
21331;DHT22;10824;51.632;4.950;2023-07-13T14:39:18;24.50;1.00
21331;DHT22;10824;51.632;4.950;2023-07-13T14:41:45;24.20;1.00
21331;DHT22;10824;51.632;4.950;2023-07-13T14:44:19;23.40;1.00
21331;DHT22;10824;51.632;4.950;2023-07-13T14:46:48;23.20;1.00
21331;DHT22;10824;51.632;4.950;2023-07-13T14:52:01;23.20;1.00
21331;DHT22;10824;51.632;4.950;2023-07-13T14:54:31;23.50;1.00
21331;DHT22;10824;51.632;4.950;2023-07-13T14:56:59;23.50;1.00
21331;DHT22;10824;51.632;4.950;2023-07-13T14:59:26;23.20;1.00
21331;DHT22;10824;51.632;4.950;2023-07-13T15:01:53;23.40;1.00
21331;DHT22;10824;51.632;4.950;2023-07-13T15:04:21;23.80;1.00
21331;DHT22;10824;51.632;4.950;2023-07-13T15:06:58;23.80;1.00
21331;DHT22;10824;51.632;4.950;2023-07-13T15:09:27;24.10;1.00
21331;DHT22;10824;51.632;4.950;2023-07-13T15:11:56;24.00;1.00
21331;DHT22;10824;51.632;4.950;2023-07-13T15:14:25;23.70;1.00
21331;DHT22;10824;51.632;4.950;2023-07-13T15:16:55;23.40;1.00
21331;DHT22;10824;51.632;4.950;2023-07-13T15:19:23;23.10;1.00
21331;DHT22;10824;51.632;4.950;2023-07-13T15:21:53;23.30;1.00
21331;DHT22;10824;51.632;4.950;2023-07-13T15:24:21;23.80;1.00
21331;DHT22;10824;51.632;4.950;2023-07-13T15:26:48;23.90;1.00
21331;DHT22;10824;51.632;4.950;2023-07-13T15:29:17;24.20;1.00
21331;DHT22;10824;51.632;4.950;2023-07-13T15:31:44;24.50;1.00
21331;DHT22;10824;51.632;4.950;2023-07-13T15:34:15;24.60;1.00
21331;DHT22;10824;51.632;4.950;2023-07-13T15:36:43;24.70;1.00
21331;DHT22;10824;51.632;4.950;2023-07-13T15:39:15;24.20;1.00
21331;DHT22;10824;51.632;4.950;2023-07-13T15:41:46;24.20;1.00
21331;DHT22;10824;51.632;4.950;2023-07-13T15:44:28;24.40;1.00
21331;DHT22;10824;51.632;4.950;2023-07-13T15:46:55;24.60;1.00
21331;DHT22;10824;51.632;4.950;2023-07-13T15:49:23;24.10;1.00
21331;DHT22;10824;51.632;4.950;2023-07-13T15:51:51;24.20;1.00
21331;DHT22;10824;51.632;4.950;2023-07-13T15:54:37;24.50;1.00
21331;DHT22;10824;51.632;4.950;2023-07-13T15:57:20;24.40;1.00
21331;DHT22;10824;51.632;4.950;2023-07-13T15:59:48;24.20;1.00
21331;DHT22;10824;51.632;4.950;2023-07-13T16:02:19;23.80;1.00
21331;DHT22;10824;51.632;4.950;2023-07-13T16:04:48;23.70;1.00
21331;DHT22;10824;51.632;4.950;2023-07-13T16:07:17;23.40;1.00
21331;DHT22;10824;51.632;4.950;2023-07-13T16:09:46;23.40;1.00
21331;DHT22;10824;51.632;4.950;2023-07-13T16:12:14;23.40;1.00
21331;DHT22;10824;51.632;4.950;2023-07-13T16:14:42;23.30;1.00
21331;DHT22;10824;51.632;4.950;2023-07-13T16:17:14;23.30;1.00
21331;DHT22;10824;51.632;4.950;2023-07-13T16:19:44;23.20;1.00
21331;DHT22;10824;51.632;4.950;2023-07-13T16:22:16;23.40;1.00
21331;DHT22;10824;51.632;4.950;2023-07-13T16:24:44;23.60;1.00
21331;DHT22;10824;51.632;4.950;2023-07-13T16:27:12;23.80;1.00
21331;DHT22;10824;51.632;4.950;2023-07-13T16:29:40;23.70;1.00
21331;DHT22;10824;51.632;4.950;2023-07-13T16:32:13;23.90;1.00